createdAt,value
2019-04-22T00:00:53.842Z,7.60
2019-04-22T00:03:32.314Z,7.50
2019-04-22T00:06:14.691Z,7.50
2019-04-22T00:08:49.532Z,7.50
2019-04-22T00:11:25.784Z,7.40
2019-04-22T00:13:52.083Z,7.40
2019-04-22T00:16:26.405Z,7.40
2019-04-22T00:21:25.801Z,7.30
2019-04-22T00:23:51.762Z,7.30
2019-04-22T00:26:34.135Z,7.20
2019-04-22T00:29:03.694Z,7.20
2019-04-22T00:31:38.541Z,7.10
2019-04-22T00:34:06.161Z,7.10
2019-04-22T00:36:40.172Z,7.00
2019-04-22T00:39:07.104Z,7.00
2019-04-22T00:41:38.955Z,7.00
2019-04-22T00:44:15.711Z,6.90
2019-04-22T00:46:39.696Z,6.90
2019-04-22T00:49:52.730Z,6.80
2019-04-22T00:51:44.922Z,6.80
2019-04-22T00:54:06.001Z,6.80
2019-04-22T00:56:42.155Z,6.80
2019-04-22T00:59:14.405Z,6.70
2019-04-22T01:01:45.654Z,6.70
2019-04-22T01:04:19.920Z,6.60
2019-04-22T01:06:49.503Z,6.60
2019-04-22T01:09:19.084Z,6.60
2019-04-22T01:11:45.003Z,6.60
2019-04-22T01:14:15.754Z,6.60
2019-04-22T01:16:48.593Z,6.50
2019-04-22T01:19:27.636Z,6.60
2019-04-22T01:21:52.316Z,6.60
2019-04-22T01:24:19.355Z,6.70
2019-04-22T01:26:43.616Z,6.70
2019-04-22T01:29:12.651Z,6.80
2019-04-22T01:31:36.521Z,6.80
2019-04-22T01:34:21.989Z,6.80
2019-04-22T01:36:52.886Z,6.80
2019-04-22T01:39:28.835Z,6.80
2019-04-22T01:47:26.666Z,6.70
2019-04-22T01:49:44.160Z,6.60
2019-04-22T01:52:14.062Z,6.60
2019-04-22T01:54:41.842Z,6.60
2019-04-22T01:57:12.786Z,6.50
2019-04-22T01:59:35.554Z,6.40
2019-04-22T02:02:10.588Z,6.40
2019-04-22T02:04:50.206Z,6.30
2019-04-22T02:07:16.926Z,6.30
2019-04-22T02:09:42.822Z,6.20
2019-04-22T02:14:44.320Z,6.10
2019-04-22T02:17:19.967Z,6.00
2019-04-22T02:19:53.381Z,5.90
2019-04-22T02:22:38.501Z,5.80
2019-04-22T02:24:50.958Z,5.80
2019-04-22T02:27:27.392Z,5.70
2019-04-22T02:32:41.136Z,5.70
2019-04-22T02:37:37.339Z,5.70
2019-04-22T02:40:03.748Z,5.60
2019-04-22T02:42:23.488Z,5.60
2019-04-22T02:47:27.517Z,5.50
2019-04-22T02:52:41.248Z,5.40
2019-04-22T02:57:40.995Z,5.40
2019-04-22T03:05:11.332Z,5.30
2019-04-22T03:07:40.988Z,5.30
2019-04-22T03:10:09.388Z,5.30
2019-04-22T03:12:35.342Z,5.20
2019-04-22T03:15:07.490Z,5.20
2019-04-22T03:22:46.997Z,5.10
2019-04-22T03:27:38.816Z,5.10
2019-04-22T03:40:34.653Z,4.90
2019-04-22T03:42:56.374Z,4.90
2019-04-22T03:50:25.534Z,4.80
2019-04-22T03:53:03.984Z,4.70
2019-04-22T03:55:43.386Z,4.70
2019-04-22T04:00:34.926Z,4.70
2019-04-22T04:03:00.949Z,4.70
2019-04-22T04:05:37.662Z,4.70
2019-04-22T04:08:04.914Z,4.80
2019-04-22T04:13:08.298Z,4.80
2019-04-22T04:15:32.892Z,4.80
2019-04-22T04:20:45.101Z,4.90
2019-04-22T04:23:26.750Z,5.00
2019-04-22T04:25:42.479Z,5.00
2019-04-22T04:28:29.459Z,5.10
2019-04-22T04:30:42.782Z,5.20
2019-04-22T04:33:18.101Z,5.20
2019-04-22T04:37:58.907Z,5.30
2019-04-22T04:40:42.005Z,5.50
2019-04-22T04:48:27.564Z,5.70
2019-04-22T04:51:00.388Z,6.20
2019-04-22T04:53:24.787Z,7.40
2019-04-22T04:55:47.363Z,8.50
2019-04-22T04:58:36.836Z,9.70
2019-04-22T05:00:57.722Z,10.80
2019-04-22T05:03:32.848Z,12.00
2019-04-22T05:05:52.404Z,13.20
2019-04-22T05:08:49.219Z,14.10
2019-04-22T05:13:23.413Z,15.70
2019-04-22T05:16:11.475Z,16.40
2019-04-22T05:18:33.075Z,17.10
2019-04-22T05:23:33.340Z,18.50
2019-04-22T05:25:57.643Z,19.20
2019-04-22T05:28:24.434Z,19.80
2019-04-22T05:30:56.385Z,20.50
2019-04-22T05:33:27.518Z,20.90
2019-04-22T05:36:02.676Z,21.30
2019-04-22T05:38:38.382Z,21.70
2019-04-22T05:40:56.383Z,22.20
2019-04-22T05:43:29.191Z,22.50
2019-04-22T05:46:00.568Z,22.70
2019-04-22T05:48:33.153Z,22.20
2019-04-22T05:51:04.444Z,22.50
2019-04-22T05:53:37.291Z,22.60
2019-04-22T05:56:20.827Z,23.00
2019-04-22T05:58:47.899Z,23.10
2019-04-22T06:03:46.224Z,23.00
2019-04-22T06:06:16.377Z,23.00
2019-04-22T06:08:48.292Z,23.00
2019-04-22T06:11:22.795Z,23.10
2019-04-22T06:13:50.212Z,23.10
2019-04-22T06:16:25.902Z,23.10
2019-04-22T06:18:56.427Z,23.10
2019-04-22T06:21:28.086Z,23.20
2019-04-22T06:24:04.601Z,23.20
2019-04-22T06:26:42.381Z,23.20
2019-04-22T06:29:01.268Z,23.10
2019-04-22T06:31:38.649Z,23.00
2019-04-22T06:34:05.703Z,23.00
2019-04-22T06:36:37.487Z,22.90
2019-04-22T06:39:13.288Z,22.80
2019-04-22T06:41:35.378Z,22.60
2019-04-22T06:44:14.467Z,22.30
2019-04-22T06:46:39.670Z,21.90
2019-04-22T06:49:11.214Z,20.80
2019-04-22T06:51:43.163Z,19.50
2019-04-22T06:54:10.904Z,18.50
2019-04-22T06:56:42.867Z,17.60
2019-04-22T06:59:14.866Z,16.70
2019-04-22T07:04:14.101Z,15.40
2019-04-22T07:06:48.706Z,14.90
2019-04-22T07:11:43.322Z,14.20
2019-04-22T07:14:18.166Z,14.10
2019-04-22T07:19:21.895Z,13.90
2019-04-22T07:21:50.063Z,13.80
2019-04-22T07:24:34.501Z,13.70
2019-04-22T07:26:54.399Z,13.70
2019-04-22T07:29:19.002Z,13.70
2019-04-22T07:31:54.718Z,13.70
2019-04-22T07:34:27.851Z,13.80
2019-04-22T07:37:10.996Z,13.90
2019-04-22T07:39:23.610Z,14.00
2019-04-22T07:42:02.394Z,14.10
2019-04-22T07:47:04.815Z,14.20
2019-04-22T07:49:33.943Z,14.40
2019-04-22T07:52:00.930Z,14.40
2019-04-22T07:54:29.300Z,14.50
2019-04-22T07:57:08.935Z,14.60
2019-04-22T07:59:28.023Z,14.70
2019-04-22T08:02:04.040Z,14.80
2019-04-22T08:04:52.881Z,14.90
2019-04-22T08:07:10.712Z,14.90
2019-04-22T08:12:02.087Z,15.10
2019-04-22T08:14:40.669Z,15.20
2019-04-22T08:17:36.546Z,15.20
2019-04-22T08:19:43.114Z,15.30
2019-04-22T08:22:11.657Z,15.40
2019-04-22T08:24:41.767Z,15.40
2019-04-22T08:27:15.210Z,15.50
2019-04-22T08:29:53.481Z,15.50
2019-04-22T08:32:16.231Z,15.50
2019-04-22T08:34:42.755Z,15.60
2019-04-22T08:39:58.302Z,15.60
2019-04-22T08:42:27.461Z,15.60
2019-04-22T08:45:07.995Z,15.60
2019-04-22T08:47:29.188Z,15.70
2019-04-22T08:49:56.988Z,15.70
2019-04-22T08:54:57.536Z,15.80
2019-04-22T08:57:34.672Z,15.80
2019-04-22T08:59:56.066Z,15.90
2019-04-22T09:04:58.337Z,15.90
2019-04-22T09:09:55.751Z,15.90
2019-04-22T09:14:56.170Z,16.00
2019-04-22T09:17:35.792Z,16.10
2019-04-22T09:20:10.860Z,16.20
2019-04-22T09:22:38.659Z,16.20
2019-04-22T09:25:08.134Z,16.20
2019-04-22T09:27:41.373Z,16.20
2019-04-22T09:30:09.128Z,16.30
2019-04-22T09:32:38.547Z,16.30
2019-04-22T09:35:25.175Z,16.30
2019-04-22T09:37:48.202Z,16.40
2019-04-22T09:40:15.242Z,16.40
2019-04-22T09:42:44.204Z,16.40
2019-04-22T09:45:13.175Z,16.40
2019-04-22T09:47:53.654Z,16.40
2019-04-22T09:50:22.323Z,16.50
2019-04-22T09:52:51.470Z,16.60
2019-04-22T09:57:47.139Z,16.70
2019-04-22T10:00:13.846Z,16.70
2019-04-22T10:02:55.403Z,16.80
2019-04-22T10:05:23.815Z,16.70
2019-04-22T10:07:52.475Z,16.70
2019-04-22T10:10:35.051Z,16.70
2019-04-22T10:12:46.710Z,16.70
2019-04-22T10:15:20.892Z,16.70
2019-04-22T10:18:12.801Z,16.70
2019-04-22T10:20:27.090Z,16.70
2019-04-22T10:22:57.446Z,16.60
2019-04-22T10:25:25.224Z,16.60
2019-04-22T10:28:06.962Z,16.70
2019-04-22T10:30:39.173Z,16.70
2019-04-22T10:32:52.601Z,16.80
2019-04-22T10:35:25.272Z,16.90
2019-04-22T10:37:54.308Z,16.90
2019-04-22T10:40:42.999Z,16.80
2019-04-22T10:43:12.150Z,16.90
2019-04-22T10:45:43.901Z,16.90
2019-04-22T10:48:14.564Z,17.00
2019-04-22T10:50:46.657Z,17.00
2019-04-22T10:53:17.693Z,17.00
2019-04-22T10:55:49.870Z,17.00
2019-04-22T10:58:20.579Z,17.00
2019-04-22T11:00:50.805Z,17.10
2019-04-22T11:03:22.314Z,17.10
2019-04-22T11:05:53.916Z,17.10
2019-04-22T11:08:31.984Z,17.10
2019-04-22T11:11:07.091Z,17.20
2019-04-22T11:13:24.367Z,17.20
2019-04-22T11:15:55.030Z,17.20
2019-04-22T11:18:25.261Z,17.10
2019-04-22T11:20:55.768Z,17.10
2019-04-22T11:23:25.168Z,17.20
2019-04-22T11:25:54.422Z,17.20
2019-04-22T11:28:23.539Z,17.20
2019-04-22T11:30:54.340Z,17.30
2019-04-22T11:33:24.648Z,17.30
2019-04-22T11:35:55.484Z,17.30
2019-04-22T11:38:24.761Z,17.30
2019-04-22T11:40:55.838Z,17.30
2019-04-22T11:43:26.052Z,17.30
2019-04-22T11:45:57.436Z,17.30
2019-04-22T11:48:27.040Z,17.30
2019-04-22T11:50:57.766Z,17.40
2019-04-22T11:53:27.058Z,17.40
2019-04-22T11:55:56.241Z,17.40
2019-04-22T11:58:26.582Z,17.40
2019-04-22T12:00:57.038Z,17.50
2019-04-22T12:03:26.911Z,17.60
2019-04-22T12:05:57.799Z,17.60
2019-04-22T12:08:27.183Z,17.60
2019-04-22T12:11:00.387Z,17.60
2019-04-22T12:13:28.265Z,17.70
2019-04-22T12:15:58.946Z,17.80
2019-04-22T12:18:29.115Z,17.90
2019-04-22T12:20:59.212Z,17.90
2019-04-22T12:23:29.392Z,18.00
2019-04-22T12:26:04.222Z,18.00
2019-04-22T12:28:31.077Z,18.00
2019-04-22T12:31:01.627Z,18.00
2019-04-22T12:33:31.612Z,18.00
2019-04-22T12:36:02.248Z,18.10
2019-04-22T12:38:31.601Z,18.00
2019-04-22T12:41:05.879Z,18.00
2019-04-22T12:43:32.237Z,18.10
2019-04-22T12:46:02.885Z,18.10
2019-04-22T12:48:32.875Z,18.10
2019-04-22T12:51:02.979Z,18.10
2019-04-22T12:53:33.963Z,18.00
2019-04-22T12:56:03.299Z,18.00
2019-04-22T12:58:33.759Z,18.10
2019-04-22T13:01:03.357Z,18.10
2019-04-22T13:03:34.030Z,18.00
2019-04-22T13:06:03.779Z,18.00
2019-04-22T13:08:33.939Z,18.10
2019-04-22T13:11:10.380Z,18.00
2019-04-22T13:13:34.626Z,18.00
2019-04-22T13:16:04.714Z,18.00
2019-04-22T13:18:42.124Z,18.00
2019-04-22T13:21:06.456Z,18.00
2019-04-22T13:23:36.919Z,18.00
2019-04-22T13:26:07.435Z,17.90
2019-04-22T13:28:36.903Z,17.90
2019-04-22T13:31:07.762Z,17.80
2019-04-22T13:33:37.239Z,17.80
2019-04-22T13:36:07.890Z,17.70
2019-04-22T13:38:38.583Z,17.70
2019-04-22T13:41:21.261Z,17.70
2019-04-22T13:43:38.856Z,17.60
2019-04-22T13:46:08.121Z,17.50
2019-04-22T13:48:58.943Z,17.50
2019-04-22T13:51:36.372Z,17.40
2019-04-22T13:56:32.289Z,17.40
2019-04-22T13:58:52.448Z,17.40
2019-04-22T14:01:14.832Z,17.30
2019-04-22T14:04:07.105Z,17.30
2019-04-22T14:06:38.815Z,17.40
2019-04-22T14:09:09.540Z,17.30
2019-04-22T14:11:48.860Z,17.20
2019-04-22T14:14:10.972Z,17.20
2019-04-22T14:16:40.848Z,17.20
2019-04-22T14:19:10.038Z,17.20
2019-04-22T14:21:39.059Z,17.10
2019-04-22T14:24:11.753Z,17.00
2019-04-22T14:26:52.775Z,17.00
2019-04-22T14:29:11.271Z,16.90
2019-04-22T14:31:40.606Z,16.90
2019-04-22T14:34:11.657Z,16.80
2019-04-22T14:36:41.367Z,16.80
2019-04-22T14:39:10.543Z,16.80
2019-04-22T14:44:12.633Z,16.80
2019-04-22T14:47:09.094Z,16.80
2019-04-22T14:49:37.036Z,16.80
2019-04-22T14:52:10.798Z,16.70
2019-04-22T14:54:34.077Z,16.70
2019-04-22T14:56:46.551Z,16.60
2019-04-22T14:59:16.855Z,16.60
2019-04-22T15:01:47.583Z,16.60
2019-04-22T15:04:17.225Z,16.50
2019-04-22T15:06:48.892Z,16.50
2019-04-22T15:09:17.274Z,16.40
2019-04-22T15:12:00.758Z,16.40
2019-04-22T15:14:17.361Z,16.30
2019-04-22T15:17:18.705Z,16.30
2019-04-22T15:19:58.774Z,16.20
2019-04-22T15:22:28.466Z,16.20
2019-04-22T15:24:58.577Z,16.20
2019-04-22T15:27:30.825Z,16.20
2019-04-22T15:29:59.175Z,16.20
2019-04-22T15:32:29.557Z,16.20
2019-04-22T15:34:59.625Z,16.10
2019-04-22T15:37:28.908Z,16.10
2019-04-22T15:39:58.598Z,16.00
2019-04-22T15:42:30.453Z,15.90
2019-04-22T15:44:59.857Z,15.90
2019-04-22T15:47:30.968Z,15.90
2019-04-22T15:50:00.350Z,15.80
2019-04-22T15:52:37.587Z,15.80
2019-04-22T15:55:00.760Z,15.80
2019-04-22T15:57:30.802Z,15.80
2019-04-22T16:00:14.332Z,15.80
2019-04-22T16:02:31.749Z,15.80
2019-04-22T16:05:02.501Z,15.70
2019-04-22T16:07:31.929Z,15.70
2019-04-22T16:10:01.821Z,15.60
2019-04-22T16:12:40.863Z,15.60
2019-04-22T16:15:04.345Z,15.60
2019-04-22T16:17:32.939Z,15.50
2019-04-22T16:20:03.532Z,15.50
2019-04-22T16:22:52.343Z,15.40
2019-04-22T16:25:41.079Z,15.40
2019-04-22T16:28:11.079Z,15.40
2019-04-22T16:30:41.386Z,15.30
2019-04-22T16:33:11.186Z,15.30
2019-04-22T16:35:40.567Z,15.20
2019-04-22T16:38:10.889Z,15.20
2019-04-22T16:40:40.896Z,15.10
2019-04-22T16:43:11.948Z,15.10
2019-04-22T16:45:40.948Z,15.10
2019-04-22T16:48:11.499Z,15.00
2019-04-22T16:50:42.820Z,15.00
2019-04-22T16:53:13.790Z,14.90
2019-04-22T16:55:42.567Z,14.90
2019-04-22T16:58:12.668Z,14.90
2019-04-22T17:00:42.754Z,14.80
2019-04-22T17:03:30.793Z,14.80
2019-04-22T17:06:14.363Z,14.80
2019-04-22T17:08:44.476Z,14.70
2019-04-22T17:11:14.205Z,14.60
2019-04-22T17:13:44.582Z,14.60
2019-04-22T17:16:15.666Z,14.60
2019-04-22T17:18:46.825Z,14.50
2019-04-22T17:21:17.500Z,14.50
2019-04-22T17:23:47.625Z,14.40
2019-04-22T17:26:17.079Z,14.40
2019-04-22T17:28:46.312Z,14.30
2019-04-22T17:31:16.410Z,14.30
2019-04-22T17:33:46.709Z,14.20
2019-04-22T17:36:16.368Z,14.20
2019-04-22T17:38:56.400Z,14.10
2019-04-22T17:41:30.172Z,14.10
2019-04-22T17:44:15.277Z,14.00
2019-04-22T17:46:41.267Z,13.90
2019-04-22T17:49:37.222Z,13.90
2019-04-22T17:54:50.166Z,13.80
2019-04-22T17:57:22.326Z,13.70
2019-04-22T17:59:51.904Z,13.60
2019-04-22T18:02:22.636Z,13.50
2019-04-22T18:04:42.889Z,13.50
2019-04-22T18:07:37.071Z,13.40
2019-04-22T18:10:23.776Z,13.40
2019-04-22T18:15:07.272Z,13.30
2019-04-22T18:17:35.663Z,13.30
2019-04-22T18:19:58.217Z,13.20
2019-04-22T18:22:21.617Z,13.10
2019-04-22T18:24:58.187Z,13.00
2019-04-22T18:27:49.077Z,12.90
2019-04-22T18:29:59.967Z,12.90
2019-04-22T18:32:37.158Z,12.80
2019-04-22T18:35:00.863Z,12.70
2019-04-22T18:37:40.994Z,12.70
2019-04-22T18:40:08.522Z,12.70
2019-04-22T18:42:34.951Z,12.60
2019-04-22T18:45:34.478Z,12.60
2019-04-22T18:47:39.081Z,12.60
2019-04-22T18:50:10.500Z,12.60
2019-04-22T18:52:48.818Z,12.50
2019-04-22T18:55:36.536Z,12.50
2019-04-22T18:58:05.459Z,12.50
2019-04-22T19:00:25.468Z,12.50
2019-04-22T19:03:01.937Z,12.50
2019-04-22T19:05:43.846Z,12.40
2019-04-22T19:08:23.251Z,12.30
2019-04-22T19:11:00.616Z,12.40
2019-04-22T19:16:12.784Z,12.30
2019-04-22T19:18:32.370Z,12.20
2019-04-22T19:20:59.208Z,12.20
2019-04-22T19:23:27.793Z,12.10
2019-04-22T19:25:52.607Z,12.10
2019-04-22T19:28:42.198Z,12.00
2019-04-22T19:31:05.573Z,12.00
2019-04-22T19:33:29.026Z,11.90
2019-04-22T19:36:02.703Z,11.90
2019-04-22T19:38:19.184Z,11.90
2019-04-22T19:41:06.920Z,11.90
2019-04-22T19:43:33.117Z,11.90
2019-04-22T19:46:02.086Z,11.90
2019-04-22T19:48:40.933Z,11.90
2019-04-22T19:51:12.869Z,11.90
2019-04-22T19:53:35.575Z,11.80
2019-04-22T19:55:59.920Z,11.90
2019-04-22T19:58:35.561Z,11.80
2019-04-22T20:01:22.242Z,11.90
2019-04-22T20:04:15.100Z,11.80
2019-04-22T20:06:38.151Z,11.90
2019-04-22T20:09:13.558Z,11.80
2019-04-22T20:11:38.689Z,11.80
2019-04-22T20:14:12.088Z,11.80
2019-04-22T20:16:38.859Z,11.70
2019-04-22T20:19:19.112Z,11.70
2019-04-22T20:21:49.460Z,11.70
2019-04-22T20:24:06.771Z,11.60
2019-04-22T20:26:56.192Z,11.60
2019-04-22T20:29:27.183Z,11.60
2019-04-22T20:31:54.460Z,11.50
2019-04-22T20:34:23.870Z,11.50
2019-04-22T20:39:36.321Z,11.40
2019-04-22T20:42:05.591Z,11.30
2019-04-22T20:44:35.225Z,11.30
2019-04-22T20:47:00.270Z,11.20
2019-04-22T20:49:40.346Z,11.20
2019-04-22T20:52:16.413Z,11.20
2019-04-22T20:54:39.108Z,11.10
2019-04-22T20:57:02.760Z,11.10
2019-04-22T20:59:37.148Z,11.10
2019-04-22T21:02:06.691Z,11.10
2019-04-22T21:04:32.308Z,11.10
2019-04-22T21:07:10.993Z,11.10
2019-04-22T21:09:47.101Z,11.10
2019-04-22T21:12:12.170Z,11.10
2019-04-22T21:14:52.936Z,11.10
2019-04-22T21:17:18.499Z,11.10
2019-04-22T21:19:54.709Z,11.10
2019-04-22T21:22:22.675Z,11.20
2019-04-22T21:24:45.972Z,11.20
2019-04-22T21:27:25.554Z,11.20
2019-04-22T21:29:45.110Z,11.30
2019-04-22T21:32:17.673Z,11.30
2019-04-22T21:35:03.906Z,11.30
2019-04-22T21:37:26.831Z,11.30
2019-04-22T21:39:46.359Z,11.30
2019-04-22T21:42:18.549Z,11.30
2019-04-22T21:44:51.143Z,11.20
2019-04-22T21:47:29.675Z,11.20
2019-04-22T21:50:19.556Z,11.20
2019-04-22T21:52:28.011Z,11.20
2019-04-22T21:55:07.041Z,11.10
2019-04-22T21:57:57.193Z,11.10
2019-04-22T22:00:15.088Z,11.10
2019-04-22T22:02:39.734Z,11.10
2019-04-22T22:05:04.518Z,11.00
2019-04-22T22:07:25.455Z,11.00
2019-04-22T22:10:12.307Z,11.00
2019-04-22T22:12:40.780Z,11.00
2019-04-22T22:15:12.915Z,11.00
2019-04-22T22:17:42.216Z,11.00
2019-04-22T22:20:11.882Z,11.00
2019-04-22T22:22:55.119Z,10.90
2019-04-22T22:25:19.877Z,10.90
2019-04-22T22:27:44.884Z,10.90
2019-04-22T22:30:37.144Z,10.80
2019-04-22T22:32:49.766Z,10.80
2019-04-22T22:35:20.721Z,10.80
2019-04-22T22:37:53.446Z,10.80
2019-04-22T22:40:09.381Z,10.70
2019-04-22T22:42:38.749Z,10.70
2019-04-22T22:45:15.419Z,10.70
2019-04-22T22:47:53.512Z,10.60
2019-04-22T22:50:28.377Z,10.70
2019-04-22T22:53:06.677Z,10.70
2019-04-22T22:55:29.309Z,10.60
2019-04-22T22:57:58.380Z,10.60
2019-04-22T23:00:33.888Z,10.60
2019-04-22T23:03:23.271Z,10.60
2019-04-22T23:05:37.672Z,10.70
2019-04-22T23:08:09.614Z,10.60
2019-04-22T23:10:47.663Z,10.60
2019-04-22T23:13:16.817Z,10.50
2019-04-22T23:15:37.083Z,10.40
2019-04-22T23:17:47.943Z,10.40
2019-04-22T23:20:26.677Z,10.40
2019-04-22T23:23:12.230Z,10.30
2019-04-22T23:25:41.419Z,10.30
2019-04-22T23:28:26.632Z,10.20
2019-04-22T23:31:24.641Z,10.10
2019-04-22T23:34:04.643Z,10.00
2019-04-22T23:36:32.575Z,10.00
2019-04-22T23:39:14.142Z,9.90
2019-04-22T23:41:46.361Z,9.90
2019-04-22T23:44:20.696Z,9.80
2019-04-22T23:46:58.466Z,9.80
2019-04-22T23:49:29.702Z,9.70
2019-04-22T23:52:10.177Z,9.70
2019-04-22T23:54:49.091Z,9.70
2019-04-22T23:57:08.412Z,9.60
